Time;durP1;ratioP1;P1;durP2;ratioP2;P2;SDS_P1;SDS_P2;PMS_P1;PMS_P2;Temp;Humidity;BMP_temperature;BMP_pressure;BME280_temperature;BME280_humidity;BME280_pressure;Samples;Min_cycle;Max_cycle;Signal;HPM_P1;HPM_P2
2023/11/27 00:02:03;;;;;;;9.97;4.90;;;7.00;99.90;;;;;;4975427;28;20445;-75
2023/11/27 00:04:32;;;;;;;10.80;4.50;;;7.00;99.90;;;;;;4975790;28;20453;-75
2023/11/27 00:06:59;;;;;;;7.27;5.00;;;7.00;99.90;;;;;;4974407;28;20636;-75
2023/11/27 00:09:26;;;;;;;8.13;4.70;;;7.00;99.90;;;;;;4974850;28;20465;-75
2023/11/27 00:11:53;;;;;;;6.90;5.10;;;7.00;99.90;;;;;;4974006;28;20488;-75
2023/11/27 00:14:21;;;;;;;9.40;4.87;;;7.00;99.90;;;;;;4974428;28;20449;-75
2023/11/27 00:16:49;;;;;;;9.23;5.97;;;7.00;99.90;;;;;;4975209;28;20448;-75
2023/11/27 00:19:17;;;;;;;12.70;5.20;;;6.90;99.90;;;;;;4972994;28;20465;-75
2023/11/27 00:21:43;;;;;;;10.43;4.93;;;6.90;99.90;;;;;;4977219;28;20457;-75
2023/11/27 00:24:10;;;;;;;12.10;5.47;;;6.90;99.90;;;;;;4978097;28;20460;-75
2023/11/27 00:26:37;;;;;;;9.40;5.23;;;6.90;99.90;;;;;;4977991;28;20449;-75
2023/11/27 00:29:04;;;;;;;8.23;5.00;;;6.90;99.90;;;;;;4978026;28;20476;-75
2023/11/27 00:31:32;;;;;;;6.27;5.13;;;6.90;99.90;;;;;;4977802;28;21084;-76
2023/11/27 00:33:59;;;;;;;9.20;5.53;;;6.90;99.90;;;;;;4978083;28;20449;-75
2023/11/27 00:36:29;;;;;;;18.87;5.70;;;6.90;99.90;;;;;;4977762;28;20449;-75
2023/11/27 00:38:57;;;;;;;12.40;6.00;;;6.90;99.90;;;;;;4978151;28;20445;-75
2023/11/27 00:41:23;;;;;;;9.00;6.40;;;6.90;99.90;;;;;;4977500;28;20449;-75
2023/11/27 00:43:51;;;;;;;10.73;6.00;;;6.90;99.90;;;;;;4977195;28;20954;-75
2023/11/27 00:46:19;;;;;;;9.70;5.40;;;6.80;99.90;;;;;;4977532;28;20449;-76
2023/11/27 00:48:49;;;;;;;7.90;5.80;;;6.90;99.90;;;;;;4977402;28;20457;-75
2023/11/27 00:51:16;;;;;;;9.23;6.10;;;6.90;99.90;;;;;;4977460;28;20468;-75
2023/11/27 00:53:43;;;;;;;8.73;5.50;;;6.80;99.90;;;;;;4977396;28;20452;-75
2023/11/27 00:56:10;;;;;;;12.73;6.50;;;6.80;99.90;;;;;;4978838;28;20458;-75
2023/11/27 00:58:37;;;;;;;9.23;5.97;;;6.80;99.90;;;;;;4977684;28;20453;-75
2023/11/27 01:01:05;;;;;;;13.40;7.33;;;6.90;99.90;;;;;;4977190;28;20454;-75
2023/11/27 01:03:32;;;;;;;13.47;7.37;;;6.80;99.90;;;;;;4976992;28;20452;-75
2023/11/27 01:06:00;;;;;;;13.00;7.00;;;6.80;99.90;;;;;;4976985;28;20457;-75
2023/11/27 01:08:27;;;;;;;9.93;6.30;;;6.80;99.90;;;;;;4977219;28;20453;-75
2023/11/27 01:10:54;;;;;;;8.80;6.63;;;6.80;99.90;;;;;;4976754;28;20485;-75
2023/11/27 01:13:21;;;;;;;11.23;7.27;;;6.70;99.90;;;;;;4977039;28;20449;-75
2023/11/27 01:15:48;;;;;;;10.33;7.47;;;6.80;99.90;;;;;;4975809;28;20481;-75
2023/11/27 01:18:14;;;;;;;12.00;7.03;;;6.80;99.90;;;;;;4976601;28;20958;-75
2023/11/27 01:20:42;;;;;;;13.00;7.63;;;6.80;99.90;;;;;;4986916;28;20446;-74
2023/11/27 01:23:10;;;;;;;9.27;5.80;;;6.90;99.90;;;;;;4982582;28;20958;-75
2023/11/27 01:25:37;;;;;;;9.90;7.73;;;6.90;99.90;;;;;;4979111;28;20449;-75
2023/11/27 01:28:04;;;;;;;10.90;7.20;;;6.90;99.90;;;;;;4976657;28;20482;-75
2023/11/27 01:30:31;;;;;;;12.37;7.20;;;6.90;99.90;;;;;;4976741;28;21070;-74
2023/11/27 01:32:58;;;;;;;11.93;7.37;;;6.90;99.90;;;;;;4976008;28;20481;-74
2023/11/27 01:35:27;;;;;;;10.60;7.60;;;6.80;99.90;;;;;;4977542;28;20450;-74
2023/11/27 01:37:53;;;;;;;10.07;6.80;;;6.80;99.90;;;;;;4975968;28;20453;-74
2023/11/27 01:40:22;;;;;;;14.80;7.10;;;6.80;99.90;;;;;;4976959;28;20833;-75
2023/11/27 01:42:49;;;;;;;10.03;6.57;;;6.80;99.90;;;;;;4976561;28;20445;-74
2023/11/27 01:45:16;;;;;;;9.67;6.70;;;6.80;99.90;;;;;;4976586;28;20449;-75
2023/11/27 01:47:43;;;;;;;12.33;6.70;;;6.80;99.90;;;;;;4974938;28;20460;-75
2023/11/27 01:50:10;;;;;;;11.47;7.00;;;6.80;99.90;;;;;;4976308;28;20840;-75
2023/11/27 01:52:41;;;;;;;9.27;6.87;;;6.80;99.90;;;;;;4976136;28;20523;-75
2023/11/27 01:55:09;;;;;;;10.17;6.63;;;6.80;99.90;;;;;;4976113;28;20449;-75
2023/11/27 01:57:41;;;;;;;7.67;6.77;;;6.80;99.90;;;;;;4976026;28;20456;-75
2023/11/27 02:00:11;;;;;;;10.37;5.97;;;6.80;99.90;;;;;;4976293;28;20548;-74
2023/11/27 02:02:43;;;;;;;8.27;6.00;;;6.70;99.90;;;;;;4974974;28;20449;-75
2023/11/27 02:05:10;;;;;;;12.10;5.77;;;6.80;99.90;;;;;;4976243;28;20422;-75
2023/11/27 02:07:36;;;;;;;14.50;6.40;;;6.70;99.90;;;;;;4975531;28;20449;-75
2023/11/27 02:10:04;;;;;;;15.30;6.57;;;6.70;99.90;;;;;;4975961;28;20545;-74
2023/11/27 02:12:31;;;;;;;9.90;5.57;;;6.70;99.90;;;;;;4984379;28;20559;-75
2023/11/27 02:14:59;;;;;;;12.33;6.60;;;6.70;99.90;;;;;;4977047;28;20527;-74
2023/11/27 02:17:26;;;;;;;9.10;7.10;;;6.70;99.90;;;;;;4976222;28;20448;-75
2023/11/27 02:19:53;;;;;;;11.03;7.30;;;6.70;99.90;;;;;;4975646;28;20848;-75
2023/11/27 02:22:26;;;;;;;8.73;6.50;;;6.70;99.90;;;;;;4975262;28;20453;-75
2023/11/27 02:24:55;;;;;;;9.27;6.70;;;6.70;99.90;;;;;;4975111;28;20434;-74
2023/11/27 02:27:22;;;;;;;10.13;6.20;;;6.60;99.90;;;;;;4975714;28;20453;-75
2023/11/27 02:29:49;;;;;;;10.67;6.57;;;6.60;99.90;;;;;;4975220;28;20465;-75
2023/11/27 02:32:17;;;;;;;9.10;6.33;;;6.60;99.90;;;;;;4975591;28;20865;-76
2023/11/27 02:34:47;;;;;;;9.53;5.93;;;6.60;99.90;;;;;;4975382;28;20508;-76
2023/11/27 02:37:14;;;;;;;11.07;5.73;;;6.60;99.90;;;;;;4975147;28;20449;-75
2023/11/27 02:39:41;;;;;;;11.13;6.23;;;6.70;99.90;;;;;;4975368;28;20506;-76
2023/11/27 02:42:09;;;;;;;9.27;5.30;;;6.70;99.90;;;;;;4973360;28;20973;-75
2023/11/27 02:44:36;;;;;;;5.53;5.03;;;6.60;99.90;;;;;;4975132;28;20540;-76
2023/11/27 02:47:03;;;;;;;6.20;5.07;;;6.60;99.90;;;;;;4975162;28;20469;-75
2023/11/27 02:49:31;;;;;;;10.07;5.13;;;6.70;99.90;;;;;;4975000;28;20476;-75
2023/11/27 02:52:00;;;;;;;13.00;5.80;;;6.70;99.90;;;;;;4975026;28;20477;-75
2023/11/27 02:54:29;;;;;;;9.27;4.93;;;6.70;99.90;;;;;;4974795;28;20452;-76
2023/11/27 02:56:56;;;;;;;11.47;4.90;;;6.70;99.90;;;;;;4974986;28;20453;-76
2023/11/27 02:59:25;;;;;;;7.03;5.57;;;6.70;99.50;;;;;;4974680;28;20477;-74
2023/11/27 03:01:52;;;;;;;7.60;4.73;;;6.70;99.40;;;;;;4974939;28;20445;-75
2023/11/27 03:04:19;;;;;;;7.50;4.90;;;6.70;99.70;;;;;;4974608;28;20944;-74
2023/11/27 03:06:46;;;;;;;8.33;5.60;;;6.70;99.90;;;;;;4975026;28;20452;-74
2023/11/27 03:09:16;;;;;;;7.77;5.27;;;6.70;99.90;;;;;;4974842;28;20576;-73
2023/11/27 03:11:43;;;;;;;8.17;5.10;;;6.80;99.90;;;;;;4974887;28;20564;-73
2023/11/27 03:14:10;;;;;;;7.57;4.23;;;6.80;99.90;;;;;;4974834;28;20943;-73
2023/11/27 03:16:38;;;;;;;14.00;4.90;;;6.70;99.80;;;;;;4977177;28;20445;-73
2023/11/27 03:19:05;;;;;;;9.53;4.97;;;6.70;99.70;;;;;;4976427;28;20472;-73
2023/11/27 03:21:32;;;;;;;8.80;4.30;;;6.70;99.90;;;;;;4975652;28;20453;-73
2023/11/27 03:23:59;;;;;;;8.67;4.50;;;6.70;99.90;;;;;;4974882;28;20453;-73
2023/11/27 03:26:26;;;;;;;10.97;4.57;;;6.80;99.90;;;;;;4973178;28;20445;-73
2023/11/27 03:28:54;;;;;;;9.40;4.40;;;6.80;99.90;;;;;;4975277;28;20456;-71
2023/11/27 03:31:21;;;;;;;9.17;4.53;;;6.80;99.70;;;;;;4977653;28;20512;-71
2023/11/27 03:33:51;;;;;;;9.47;4.53;;;6.80;99.70;;;;;;4977542;28;20496;-71
2023/11/27 03:36:17;;;;;;;10.63;5.27;;;6.70;99.90;;;;;;4978055;28;20543;-71
2023/11/27 03:38:44;;;;;;;9.90;4.87;;;6.60;99.90;;;;;;4978241;28;20830;-70
2023/11/27 03:41:17;;;;;;;5.53;4.37;;;6.60;99.90;;;;;;4988145;28;20453;-71
2023/11/27 03:43:44;;;;;;;8.93;4.20;;;6.70;99.90;;;;;;4982751;28;20433;-70
2023/11/27 03:46:11;;;;;;;8.50;4.37;;;6.60;99.90;;;;;;4980124;28;20449;-71
2023/11/27 03:48:37;;;;;;;9.13;4.77;;;6.70;99.90;;;;;;4980088;28;20815;-70
2023/11/27 03:51:07;;;;;;;7.00;4.23;;;6.60;99.90;;;;;;4980380;28;20453;-70
2023/11/27 03:53:34;;;;;;;6.83;3.90;;;6.60;99.90;;;;;;4977487;28;20511;-71
2023/11/27 03:56:00;;;;;;;8.37;3.90;;;6.60;99.90;;;;;;4978578;28;20449;-70
2023/11/27 03:58:27;;;;;;;8.23;5.23;;;6.50;99.90;;;;;;4980154;28;20449;-71
2023/11/27 04:00:57;;;;;;;12.83;4.60;;;6.50;99.90;;;;;;4979766;28;20465;-70
2023/11/27 04:03:24;;;;;;;5.27;3.57;;;6.50;99.90;;;;;;4980172;28;20993;-71
2023/11/27 04:05:51;;;;;;;10.03;4.27;;;6.40;99.90;;;;;;4978767;28;20453;-70
2023/11/27 04:08:19;;;;;;;7.27;3.83;;;6.40;99.90;;;;;;4979978;28;20449;-70
2023/11/27 04:10:46;;;;;;;4.33;3.80;;;6.40;99.90;;;;;;4980696;28;21109;-69
2023/11/27 04:13:13;;;;;;;10.80;4.43;;;6.40;99.90;;;;;;4982344;28;20488;-69
2023/11/27 04:15:41;;;;;;;4.33;3.93;;;6.30;99.90;;;;;;4983491;28;20974;-70
2023/11/27 04:18:09;;;;;;;6.90;3.43;;;6.30;99.90;;;;;;4984813;28;20453;-69
2023/11/27 04:20:36;;;;;;;7.63;4.40;;;6.30;99.90;;;;;;4984128;28;20476;-69
2023/11/27 04:23:03;;;;;;;10.83;4.20;;;6.30;99.90;;;;;;4981871;28;20448;-69
2023/11/27 04:25:31;;;;;;;5.03;4.23;;;6.30;99.90;;;;;;4982072;28;20445;-69
2023/11/27 04:27:58;;;;;;;6.27;4.80;;;6.30;99.90;;;;;;4982839;28;20522;-69
2023/11/27 04:30:25;;;;;;;8.03;4.83;;;6.20;99.90;;;;;;4981856;28;20833;-69
2023/11/27 04:32:52;;;;;;;7.20;4.87;;;6.30;99.90;;;;;;4981101;28;20516;-69
2023/11/27 04:35:19;;;;;;;9.80;5.00;;;6.20;99.90;;;;;;4981095;28;20453;-69
2023/11/27 04:37:46;;;;;;;10.47;4.50;;;6.20;99.90;;;;;;4980744;28;20471;-69
2023/11/27 04:40:14;;;;;;;7.00;3.80;;;6.20;99.90;;;;;;4978636;28;20882;-69
2023/11/27 04:42:43;;;;;;;5.13;3.60;;;6.20;99.90;;;;;;4980418;28;20460;-69
2023/11/27 04:45:10;;;;;;;6.67;4.50;;;6.10;99.90;;;;;;4980484;28;20453;-69
2023/11/27 04:47:37;;;;;;;10.90;4.53;;;6.10;99.90;;;;;;4979921;28;20449;-69
2023/11/27 04:50:06;;;;;;;5.40;3.50;;;6.10;99.90;;;;;;4979614;28;20480;-69
2023/11/27 04:52:33;;;;;;;7.83;3.50;;;6.10;99.90;;;;;;4982120;28;20902;-69
2023/11/27 04:55:02;;;;;;;6.43;3.67;;;6.10;99.90;;;;;;4983614;28;20452;-69
2023/11/27 04:57:29;;;;;;;6.00;4.20;;;6.10;99.90;;;;;;4984323;28;20449;-69
2023/11/27 04:59:58;;;;;;;6.83;3.90;;;6.20;99.90;;;;;;4983520;28;21053;-68
2023/11/27 05:02:25;;;;;;;6.73;3.50;;;6.10;99.90;;;;;;4981646;28;20445;-68
2023/11/27 05:04:53;;;;;;;4.90;3.90;;;6.20;99.90;;;;;;4979838;28;20529;-68
2023/11/27 05:07:20;;;;;;;4.97;3.67;;;6.10;99.90;;;;;;4978638;28;20453;-68
2023/11/27 05:09:47;;;;;;;8.50;3.70;;;6.00;99.90;;;;;;4980159;28;20528;-68
2023/11/27 05:12:14;;;;;;;5.27;3.67;;;5.90;99.90;;;;;;4979085;28;20543;-69
2023/11/27 05:14:41;;;;;;;4.20;3.80;;;5.90;99.90;;;;;;4980163;28;20457;-68
2023/11/27 05:17:09;;;;;;;5.60;3.60;;;5.90;99.90;;;;;;4979787;28;20963;-68
2023/11/27 05:19:36;;;;;;;7.97;3.60;;;5.90;99.90;;;;;;4979079;28;20473;-67
2023/11/27 05:22:03;;;;;;;7.33;4.20;;;5.80;99.90;;;;;;4979007;28;20453;-68
2023/11/27 05:24:29;;;;;;;9.30;3.80;;;5.80;99.90;;;;;;4978370;28;20450;-68
2023/11/27 05:26:58;;;;;;;7.40;4.67;;;5.80;99.90;;;;;;4978486;28;20955;-68
2023/11/27 05:29:25;;;;;;;7.23;3.97;;;5.80;99.90;;;;;;4978312;28;20889;-68
2023/11/27 05:31:52;;;;;;;6.10;3.97;;;5.80;99.90;;;;;;4978303;28;20456;-68
2023/11/27 05:34:21;;;;;;;6.70;4.60;;;5.80;99.90;;;;;;4978580;28;20485;-68
2023/11/27 05:36:48;;;;;;;8.47;5.50;;;5.80;99.90;;;;;;4979049;28;20449;-68
2023/11/27 05:39:15;;;;;;;9.27;4.70;;;5.90;99.90;;;;;;4979478;28;20500;-68
2023/11/27 05:41:42;;;;;;;6.93;5.33;;;5.90;99.90;;;;;;4978527;28;20507;-68
2023/11/27 05:44:10;;;;;;;6.63;4.90;;;5.80;99.90;;;;;;4978468;28;20445;-68
2023/11/27 05:46:37;;;;;;;6.90;5.50;;;5.90;99.90;;;;;;4962064;28;20456;-68
2023/11/27 05:49:05;;;;;;;8.13;6.07;;;5.90;99.90;;;;;;4978437;28;20484;-68
2023/11/27 05:51:39;;;;;;;6.90;5.17;;;5.90;99.90;;;;;;4978583;28;20523;-67
2023/11/27 05:54:06;;;;;;;9.73;5.43;;;5.80;99.90;;;;;;4977995;28;20473;-68
2023/11/27 05:56:35;;;;;;;9.93;5.77;;;5.80;99.90;;;;;;4978349;28;20453;-68
2023/11/27 05:59:01;;;;;;;8.43;5.07;;;5.80;99.90;;;;;;4989225;28;20473;-68
2023/11/27 06:01:28;;;;;;;7.70;4.40;;;5.70;99.90;;;;;;4985945;28;20472;-68
2023/11/27 06:03:55;;;;;;;4.67;3.97;;;5.70;99.90;;;;;;4984202;28;20452;-68
2023/11/27 06:06:22;;;;;;;11.47;4.90;;;5.70;99.90;;;;;;4981409;28;20460;-68
2023/11/27 06:08:50;;;;;;;6.97;5.77;;;5.60;99.90;;;;;;4980888;28;20869;-67
2023/11/27 06:11:17;;;;;;;12.50;5.13;;;5.60;99.90;;;;;;4980336;28;20480;-68
2023/11/27 06:13:44;;;;;;;7.07;4.90;;;5.60;99.90;;;;;;4979519;28;20485;-68
2023/11/27 06:16:11;;;;;;;11.50;4.90;;;5.60;99.90;;;;;;4978587;28;20485;-68
2023/11/27 06:18:38;;;;;;;5.60;4.90;;;5.50;99.90;;;;;;4977325;28;20536;-67
2023/11/27 06:21:06;;;;;;;9.83;4.17;;;5.60;99.90;;;;;;4978128;28;20456;-68
2023/11/27 06:23:33;;;;;;;5.60;4.43;;;5.60;99.90;;;;;;4978027;28;20494;-68
2023/11/27 06:26:03;;;;;;;10.07;4.80;;;5.50;99.90;;;;;;4977622;28;20535;-68
2023/11/27 06:28:32;;;;;;;4.80;3.90;;;5.50;99.90;;;;;;4977627;28;20446;-68
2023/11/27 06:30:59;;;;;;;5.33;3.77;;;5.50;99.90;;;;;;4976459;28;20509;-68
2023/11/27 06:33:26;;;;;;;6.30;3.30;;;5.50;99.90;;;;;;4977927;28;20508;-68
2023/11/27 06:35:53;;;;;;;7.63;3.87;;;5.50;99.90;;;;;;4977397;28;20449;-68
2023/11/27 06:38:20;;;;;;;7.13;4.10;;;5.50;99.90;;;;;;4977235;28;20456;-68
2023/11/27 06:40:48;;;;;;;5.10;4.10;;;5.50;99.90;;;;;;4977038;28;20480;-68
2023/11/27 06:43:16;;;;;;;4.03;3.33;;;5.40;99.90;;;;;;4976353;28;20947;-68
2023/11/27 06:45:43;;;;;;;4.23;3.70;;;5.40;99.90;;;;;;4976344;28;20449;-68
2023/11/27 06:48:10;;;;;;;6.40;3.40;;;5.30;99.90;;;;;;4977418;28;20456;-68
2023/11/27 06:50:37;;;;;;;7.13;4.40;;;5.30;99.90;;;;;;4977590;28;20891;-68
2023/11/27 06:53:03;;;;;;;6.77;4.37;;;5.30;99.90;;;;;;4977523;28;20485;-68
2023/11/27 06:55:30;;;;;;;4.40;3.83;;;5.40;99.90;;;;;;4977585;28;20449;-68
2023/11/27 06:57:57;;;;;;;8.33;3.50;;;5.40;99.90;;;;;;4977411;28;20445;-68
2023/11/27 07:00:26;;;;;;;3.50;2.90;;;5.50;99.90;;;;;;4976735;28;20473;-68
2023/11/27 07:02:53;;;;;;;3.97;3.10;;;5.40;99.90;;;;;;4976538;28;20499;-68
2023/11/27 07:05:20;;;;;;;6.37;3.57;;;5.40;99.90;;;;;;4976798;28;20461;-68
2023/11/27 07:07:46;;;;;;;9.00;3.70;;;5.40;99.90;;;;;;4977571;28;20866;-69
2023/11/27 07:10:14;;;;;;;7.20;2.93;;;5.40;99.90;;;;;;4981948;28;20465;-68
2023/11/27 07:12:40;;;;;;;3.43;2.80;;;5.40;99.90;;;;;;4984743;28;20456;-68
2023/11/27 07:15:10;;;;;;;6.73;3.13;;;5.40;99.90;;;;;;4986389;28;20453;-68
2023/11/27 07:17:39;;;;;;;3.70;3.30;;;5.40;99.90;;;;;;4984796;28;20492;-68
2023/11/27 07:20:07;;;;;;;4.70;2.80;;;5.40;99.90;;;;;;4986240;28;20468;-68
2023/11/27 07:22:34;;;;;;;4.73;3.90;;;5.40;99.90;;;;;;4985337;28;20453;-68
2023/11/27 07:25:01;;;;;;;3.90;3.33;;;5.40;99.90;;;;;;4983421;28;20457;-68
2023/11/27 07:27:28;;;;;;;4.00;3.60;;;5.30;99.90;;;;;;4983383;28;20449;-68
2023/11/27 07:29:55;;;;;;;6.43;3.20;;;5.30;99.90;;;;;;4985631;28;20476;-68
2023/11/27 07:32:22;;;;;;;3.63;3.20;;;5.30;99.90;;;;;;4988781;28;20890;-68
2023/11/27 07:34:50;;;;;;;4.67;4.20;;;5.30;99.90;;;;;;4987425;28;20480;-68
2023/11/27 07:37:17;;;;;;;4.60;3.80;;;5.30;99.90;;;;;;4987415;28;20445;-68
2023/11/27 07:39:44;;;;;;;3.90;3.10;;;5.30;99.90;;;;;;4986506;28;20464;-67
2023/11/27 07:42:14;;;;;;;5.67;3.23;;;5.40;99.90;;;;;;4984936;28;20452;-68
2023/11/27 07:44:42;;;;;;;4.63;4.23;;;5.40;99.90;;;;;;4983197;28;20507;-69
2023/11/27 07:47:09;;;;;;;4.47;3.33;;;5.40;99.90;;;;;;4984430;28;20516;-69
2023/11/27 07:49:36;;;;;;;7.53;3.13;;;5.40;99.90;;;;;;4983916;28;20850;-70
2023/11/27 07:52:05;;;;;;;7.03;3.17;;;5.40;99.90;;;;;;4983855;28;20456;-71
2023/11/27 07:54:32;;;;;;;4.00;2.90;;;5.50;99.90;;;;;;4983566;28;20487;-71
2023/11/27 07:56:59;;;;;;;3.30;2.67;;;5.50;99.90;;;;;;4983359;28;20445;-71
2023/11/27 07:59:26;;;;;;;4.03;3.10;;;5.50;99.90;;;;;;4982114;28;20465;-71
2023/11/27 08:01:56;;;;;;;3.70;2.67;;;5.50;99.90;;;;;;4982910;28;20445;-71
2023/11/27 08:04:23;;;;;;;3.60;2.87;;;5.50;99.90;;;;;;4981464;28;20460;-71
2023/11/27 08:06:49;;;;;;;2.83;2.53;;;5.50;99.90;;;;;;4982710;28;20453;-71
2023/11/27 08:09:18;;;;;;;4.87;2.80;;;5.40;99.90;;;;;;4982904;28;20465;-70
2023/11/27 08:11:45;;;;;;;3.17;2.87;;;5.40;99.90;;;;;;4989413;28;20449;-70
2023/11/27 08:14:13;;;;;;;6.50;3.50;;;5.40;99.90;;;;;;4989508;28;20488;-70
2023/11/27 08:16:40;;;;;;;3.80;2.90;;;5.30;99.90;;;;;;4984130;28;20457;-70
2023/11/27 08:19:09;;;;;;;2.27;2.07;;;5.50;99.90;;;;;;4981995;28;20472;-69
2023/11/27 08:21:36;;;;;;;3.67;2.50;;;5.60;99.90;;;;;;4981305;28;20457;-70
2023/11/27 08:24:04;;;;;;;2.43;2.23;;;5.60;99.90;;;;;;4980381;28;20449;-70
2023/11/27 08:26:39;;;;;;;3.90;2.40;;;5.60;99.90;;;;;;4980551;28;20448;-70
2023/11/27 08:29:06;;;;;;;5.10;2.60;;;5.60;99.90;;;;;;4981087;28;20475;-69
2023/11/27 08:31:33;;;;;;;2.77;2.57;;;5.50;99.90;;;;;;4980874;28;20849;-70
2023/11/27 08:33:59;;;;;;;3.93;2.70;;;5.70;99.90;;;;;;4980669;28;20473;-69
2023/11/27 08:36:27;;;;;;;2.70;2.33;;;5.70;99.90;;;;;;4980481;28;20453;-69
2023/11/27 08:38:55;;;;;;;2.67;2.00;;;5.70;99.90;;;;;;4980540;28;20464;-69
2023/11/27 08:41:22;;;;;;;2.23;2.03;;;5.70;99.90;;;;;;4979416;28;20448;-69
2023/11/27 08:43:52;;;;;;;2.70;2.17;;;5.60;99.90;;;;;;4978831;28;20441;-69
2023/11/27 08:46:19;;;;;;;2.20;2.00;;;5.70;99.90;;;;;;4979307;28;20445;-69
2023/11/27 08:48:45;;;;;;;3.70;1.80;;;5.70;99.90;;;;;;4980038;28;20449;-69
2023/11/27 08:51:12;;;;;;;2.37;2.17;;;5.70;99.90;;;;;;4978870;28;20453;-69
2023/11/27 08:53:40;;;;;;;3.17;1.90;;;5.80;99.90;;;;;;4979929;28;21029;-69
2023/11/27 08:56:11;;;;;;;4.00;1.87;;;5.80;99.90;;;;;;4980196;28;20449;-69
2023/11/27 08:58:38;;;;;;;1.80;1.70;;;5.80;99.90;;;;;;4980183;28;20465;-70
2023/11/27 09:01:08;;;;;;;2.97;2.10;;;5.70;99.90;;;;;;4980284;28;20445;-70
2023/11/27 09:03:35;;;;;;;1.67;1.27;;;5.80;99.90;;;;;;4980124;28;20445;-70
2023/11/27 09:06:02;;;;;;;3.23;1.87;;;5.80;99.90;;;;;;4979525;28;20460;-70
2023/11/27 09:08:29;;;;;;;2.67;1.60;;;5.80;99.90;;;;;;4980230;28;20485;-71
2023/11/27 09:10:56;;;;;;;2.50;1.40;;;5.80;99.90;;;;;;4978337;28;20473;-69
2023/11/27 09:13:23;;;;;;;1.50;1.40;;;5.90;99.90;;;;;;4979496;28;20449;-69
2023/11/27 09:15:50;;;;;;;1.57;1.27;;;5.90;99.90;;;;;;4979399;28;20927;-70
2023/11/27 09:18:19;;;;;;;2.00;1.80;;;5.90;99.90;;;;;;4979881;28;20470;-69
2023/11/27 09:20:46;;;;;;;2.37;1.40;;;5.80;99.90;;;;;;4979045;28;20476;-68
2023/11/27 09:23:14;;;;;;;1.37;1.27;;;5.80;99.90;;;;;;4979013;28;20890;-69
2023/11/27 09:25:40;;;;;;;1.10;1.00;;;5.90;99.90;;;;;;4980351;28;20456;-70
2023/11/27 09:28:08;;;;;;;2.70;1.30;;;5.80;99.90;;;;;;4980100;28;20457;-70
2023/11/27 09:30:35;;;;;;;1.00;1.00;;;5.90;99.90;;;;;;4979849;28;20501;-70
2023/11/27 09:33:04;;;;;;;2.20;1.00;;;5.90;99.90;;;;;;4979804;28;20449;-70
2023/11/27 09:35:32;;;;;;;1.47;1.37;;;5.90;99.90;;;;;;4977789;28;20528;-70
2023/11/27 09:38:00;;;;;;;1.87;1.17;;;5.90;99.90;;;;;;4979016;28;20915;-70
2023/11/27 09:40:35;;;;;;;1.23;1.13;;;5.90;99.90;;;;;;4978349;28;20983;-69
2023/11/27 09:43:03;;;;;;;3.03;1.17;;;5.90;99.90;;;;;;4978012;28;20463;-69
2023/11/27 09:45:31;;;;;;;2.23;1.17;;;5.90;99.90;;;;;;4978198;28;20445;-69
2023/11/27 09:48:04;;;;;;;1.33;1.20;;;6.00;99.90;;;;;;4978379;28;20457;-73
2023/11/27 09:50:36;;;;;;;1.83;1.73;;;6.00;99.90;;;;;;4978206;28;20870;-70
2023/11/27 09:53:05;;;;;;;1.33;1.20;;;6.10;99.90;;;;;;4976687;28;20499;-70
2023/11/27 09:55:35;;;;;;;2.00;1.30;;;6.10;99.90;;;;;;4978536;28;21006;-69
2023/11/27 09:58:05;;;;;;;2.67;1.20;;;6.20;99.90;;;;;;4979252;28;20444;-69
2023/11/27 10:00:32;;;;;;;1.63;1.20;;;6.20;99.90;;;;;;4979050;28;20472;-69
2023/11/27 10:02:59;;;;;;;1.43;1.27;;;6.10;99.90;;;;;;4979831;28;20449;-69
2023/11/27 10:05:27;;;;;;;0.97;0.90;;;6.20;99.90;;;;;;4980082;28;20441;-70
2023/11/27 10:07:57;;;;;;;2.20;1.23;;;6.20;99.90;;;;;;4980851;28;20825;-70
2023/11/27 10:10:33;;;;;;;1.17;0.80;;;6.20;99.90;;;;;;4983366;28;20480;-69
2023/11/27 10:13:03;;;;;;;2.80;1.30;;;6.30;99.90;;;;;;4983597;28;20429;-69
2023/11/27 10:15:38;;;;;;;1.03;0.93;;;6.20;99.90;;;;;;5091679;27;21024;-60
2023/11/27 10:18:08;;;;;;;1.37;0.97;;;6.20;99.90;;;;;;5091366;28;20443;-60
2023/11/27 10:20:35;;;;;;;1.33;1.13;;;6.20;99.90;;;;;;5091732;28;20471;-61
2023/11/27 10:23:03;;;;;;;1.93;1.10;;;6.20;99.90;;;;;;5091025;28;20507;-60
2023/11/27 10:25:30;;;;;;;0.93;0.80;;;6.20;99.90;;;;;;5090785;28;20906;-60
2023/11/27 10:27:58;;;;;;;2.67;1.50;;;6.30;99.90;;;;;;5091282;28;20474;-60
2023/11/27 10:30:27;;;;;;;3.70;1.20;;;6.30;99.90;;;;;;5091263;28;20495;-60
2023/11/27 10:32:55;;;;;;;3.00;1.57;;;6.30;99.90;;;;;;5091275;28;20444;-61
2023/11/27 10:35:25;;;;;;;1.40;1.30;;;6.20;99.90;;;;;;5091094;28;20432;-60
2023/11/27 10:37:54;;;;;;;4.33;0.90;;;6.20;99.90;;;;;;5090829;28;20444;-60
2023/11/27 10:40:25;;;;;;;0.90;0.90;;;6.20;99.90;;;;;;5090864;28;20503;-60
2023/11/27 10:42:57;;;;;;;2.17;1.20;;;6.20;99.90;;;;;;5090805;28;20432;-61
2023/11/27 10:45:24;;;;;;;1.87;1.10;;;6.30;99.90;;;;;;5090731;28;20816;-60
2023/11/27 10:47:52;;;;;;;2.70;1.17;;;6.30;99.90;;;;;;5090846;28;20470;-61
2023/11/27 10:50:22;;;;;;;1.03;0.83;;;6.30;99.90;;;;;;5090829;28;20452;-61
2023/11/27 10:52:49;;;;;;;1.20;1.10;;;6.30;99.90;;;;;;5090612;28;20922;-60
2023/11/27 10:55:18;;;;;;;2.00;1.00;;;6.30;99.90;;;;;;5090387;28;20526;-60
2023/11/27 10:57:45;;;;;;;1.07;0.90;;;6.30;99.90;;;;;;5090441;28;20466;-60
2023/11/27 11:00:18;;;;;;;1.67;1.10;;;6.30;99.90;;;;;;5090201;28;20468;-60
2023/11/27 11:02:49;;;;;;;1.10;0.90;;;6.30;99.90;;;;;;5090446;28;20452;-61
2023/11/27 11:05:26;;;;;;;2.27;1.23;;;6.30;99.90;;;;;;5090385;28;20517;-60
2023/11/27 11:07:55;;;;;;;1.47;1.37;;;6.30;99.90;;;;;;5090257;28;20886;-60
2023/11/27 11:10:26;;;;;;;1.40;1.30;;;6.30;99.90;;;;;;5089731;28;20846;-60
2023/11/27 11:12:54;;;;;;;1.67;1.50;;;6.40;99.90;;;;;;5090251;28;20424;-60
2023/11/27 11:15:28;;;;;;;2.10;1.23;;;6.40;99.90;;;;;;5089767;28;20509;-59
2023/11/27 11:18:00;;;;;;;3.20;1.70;;;6.40;99.90;;;;;;5089543;28;20914;-60
2023/11/27 11:20:34;;;;;;;1.50;1.40;;;6.40;99.90;;;;;;5089919;28;20463;-60
2023/11/27 11:23:24;;;;;;;1.93;1.60;;;6.50;99.90;;;;;;5089660;28;20777;-61
2023/11/27 11:26:21;;;;;;;2.30;1.17;;;6.50;99.90;;;;;;5082496;28;20464;-60
2023/11/27 11:28:49;;;;;;;3.00;1.60;;;6.50;99.90;;;;;;5075788;28;20483;-61
2023/11/27 11:31:16;;;;;;;3.93;1.70;;;6.50;99.90;;;;;;5076212;28;20481;-61
2023/11/27 11:33:43;;;;;;;1.50;1.40;;;6.50;99.90;;;;;;5075997;28;20483;-60
2023/11/27 11:36:30;;;;;;;4.03;1.40;;;6.50;99.90;;;;;;5075826;28;20449;-60
2023/11/27 11:38:57;;;;;;;2.77;2.40;;;6.60;99.90;;;;;;5075979;28;20839;-61
2023/11/27 11:41:24;;;;;;;3.83;1.60;;;6.60;99.90;;;;;;5075842;28;20455;-60
2023/11/27 11:43:52;;;;;;;2.03;1.40;;;6.70;99.90;;;;;;5075837;28;21030;-60
2023/11/27 11:46:20;;;;;;;3.10;1.20;;;6.70;99.90;;;;;;5075828;28;20456;-60
2023/11/27 11:48:55;;;;;;;1.70;1.37;;;6.60;99.90;;;;;;5075813;28;20447;-61
2023/11/27 11:51:25;;;;;;;3.90;1.33;;;6.70;99.90;;;;;;5075800;28;20482;-61
2023/11/27 11:53:53;;;;;;;4.30;2.30;;;6.70;99.90;;;;;;5075962;28;20430;-60
2023/11/27 11:56:23;;;;;;;1.30;0.80;;;6.70;99.90;;;;;;5075527;28;20483;-60
2023/11/27 11:58:51;;;;;;;1.27;1.17;;;6.70;99.90;;;;;;5074410;28;20488;-61
2023/11/27 12:01:18;;;;;;;2.53;1.13;;;6.70;99.90;;;;;;5055654;28;20450;-60
2023/11/27 12:03:46;;;;;;;1.97;1.60;;;6.70;99.90;;;;;;5055303;28;20446;-60
2023/11/27 12:06:14;;;;;;;2.03;1.60;;;6.70;99.90;;;;;;5055453;28;20472;-60
2023/11/27 12:08:45;;;;;;;1.07;1.07;;;6.70;99.90;;;;;;5055457;28;20479;-60
2023/11/27 12:11:14;;;;;;;1.80;1.07;;;6.80;99.90;;;;;;5055404;28;20491;-60
2023/11/27 12:13:43;;;;;;;1.77;1.10;;;6.80;99.90;;;;;;5055129;28;20507;-60
2023/11/27 12:16:12;;;;;;;2.20;1.17;;;6.80;99.90;;;;;;5054833;28;20793;-60
2023/11/27 12:18:43;;;;;;;2.60;1.20;;;6.80;99.90;;;;;;5054774;28;20940;-60
2023/11/27 12:21:11;;;;;;;2.20;1.23;;;6.90;99.90;;;;;;5055312;28;20448;-60
2023/11/27 12:23:40;;;;;;;1.07;0.97;;;6.90;99.90;;;;;;5055184;28;20449;-60
2023/11/27 12:26:10;;;;;;;1.10;1.00;;;6.90;99.90;;;;;;5054924;28;20507;-60
2023/11/27 12:28:37;;;;;;;1.37;1.27;;;6.90;99.90;;;;;;5055289;28;20454;-60
2023/11/27 12:31:05;;;;;;;4.63;1.40;;;7.00;99.90;;;;;;5055258;28;20465;-60
2023/11/27 12:33:34;;;;;;;0.93;0.90;;;7.00;99.90;;;;;;5054751;28;20445;-61
2023/11/27 12:36:04;;;;;;;1.87;1.03;;;7.00;99.90;;;;;;5055316;28;20473;-61
2023/11/27 12:38:32;;;;;;;1.33;0.67;;;7.00;99.90;;;;;;5053904;28;20431;-61
2023/11/27 12:41:03;;;;;;;1.37;1.13;;;6.90;99.90;;;;;;5055077;28;20466;-62
2023/11/27 12:43:36;;;;;;;1.67;1.00;;;7.00;99.90;;;;;;5054855;28;20488;-62
2023/11/27 12:46:13;;;;;;;2.77;1.17;;;7.00;99.90;;;;;;5054778;28;20945;-61
2023/11/27 12:48:41;;;;;;;2.73;1.00;;;6.90;99.90;;;;;;5054426;28;20903;-61
2023/11/27 12:51:12;;;;;;;2.00;1.00;;;7.00;99.90;;;;;;5054666;28;20476;-62
2023/11/27 12:53:43;;;;;;;1.93;0.77;;;6.90;99.90;;;;;;5054530;28;20799;-62
2023/11/27 12:56:13;;;;;;;1.20;1.10;;;6.90;99.90;;;;;;5054586;28;20441;-62
2023/11/27 12:58:41;;;;;;;2.67;1.60;;;6.90;99.90;;;;;;5054278;28;20923;-62
2023/11/27 13:01:09;;;;;;;2.43;1.40;;;6.80;99.90;;;;;;5054406;28;20457;-61